createdAt,value
2023-04-27T00:01:14.858Z,0.81
2023-04-27T00:03:42.554Z,0.75
2023-04-27T00:06:09.881Z,0.81
2023-04-27T00:08:36.803Z,0.81
2023-04-27T00:11:03.686Z,0.81
2023-04-27T00:13:30.530Z,0.69
2023-04-27T00:15:57.106Z,0.63
2023-04-27T00:18:23.791Z,0.63
2023-04-27T00:20:50.533Z,0.63
2023-04-27T00:23:17.196Z,0.56
2023-04-27T00:25:43.864Z,0.44
2023-04-27T00:28:10.603Z,0.50
2023-04-27T00:30:37.309Z,0.44
2023-04-27T00:33:04.042Z,0.56
2023-04-27T00:35:32.717Z,0.50
2023-04-27T00:37:59.416Z,0.56
2023-04-27T00:40:25.977Z,0.44
2023-04-27T00:42:52.561Z,0.31
2023-04-27T00:45:19.161Z,0.38
2023-04-27T00:47:46.286Z,0.25
2023-04-27T00:50:12.960Z,0.25
2023-04-27T00:52:40.766Z,0.25
2023-04-27T00:55:08.090Z,0.19
2023-04-27T00:57:34.702Z,0.25
2023-04-27T01:00:02.230Z,0.31
2023-04-27T01:02:30.152Z,0.25
2023-04-27T01:04:57.482Z,0.25
2023-04-27T01:07:27.782Z,0.13
2023-04-27T01:09:54.353Z,0.19
2023-04-27T01:12:21.305Z,0.06
2023-04-27T01:14:47.885Z,0.13
2023-04-27T01:17:14.541Z,0.13
2023-04-27T01:19:41.285Z,0.06
2023-04-27T01:22:08.065Z,0.13
2023-04-27T01:24:34.748Z,0.00
2023-04-27T01:27:02.619Z,0.00
2023-04-27T01:29:29.222Z,0.00
2023-04-27T01:31:55.816Z,0.06
2023-04-27T01:34:22.449Z,0.13
2023-04-27T01:36:49.214Z,0.06
2023-04-27T01:39:16.374Z,0.13
2023-04-27T01:41:42.983Z,0.13
2023-04-27T01:44:09.541Z,0.00
2023-04-27T01:46:36.144Z,0.00
2023-04-27T01:49:02.794Z,0.00
2023-04-27T01:51:29.353Z,0.00
2023-04-27T01:53:55.958Z,-0.06
2023-04-27T01:56:22.555Z,0.00
2023-04-27T01:58:49.129Z,-0.06
2023-04-27T02:01:15.769Z,-0.06
2023-04-27T02:03:42.519Z,-0.06
2023-04-27T02:06:09.441Z,-0.06
2023-04-27T02:08:36.466Z,-0.13
2023-04-27T02:11:03.184Z,-0.06
2023-04-27T02:13:29.773Z,-0.06
2023-04-27T02:15:56.399Z,-0.06
2023-04-27T02:18:23.021Z,-0.13
2023-04-27T02:20:49.823Z,-0.13
2023-04-27T02:23:16.666Z,-0.13
2023-04-27T02:25:46.634Z,-0.13
2023-04-27T02:28:14.117Z,-0.13
2023-04-27T02:30:41.191Z,-0.13
2023-04-27T02:33:07.892Z,-0.13
2023-04-27T02:35:34.599Z,-0.19
2023-04-27T02:38:01.199Z,-0.25
2023-04-27T02:40:27.783Z,-0.25
2023-04-27T02:42:54.486Z,-0.25
2023-04-27T02:45:21.059Z,-0.25
2023-04-27T02:47:47.695Z,-0.31
2023-04-27T02:50:14.325Z,-0.25
2023-04-27T02:52:40.903Z,-0.25
2023-04-27T02:55:07.778Z,-0.19
2023-04-27T02:57:34.421Z,-0.31
2023-04-27T03:00:02.018Z,-0.44
2023-04-27T03:02:30.085Z,-0.44
2023-04-27T03:04:56.959Z,-0.50
2023-04-27T03:07:23.592Z,-0.50
2023-04-27T03:09:50.194Z,-0.50
2023-04-27T03:12:16.761Z,-0.50
2023-04-27T03:14:43.306Z,-0.50
2023-04-27T03:17:10.248Z,-0.50
2023-04-27T03:19:37.179Z,-0.50
2023-04-27T03:22:03.788Z,-0.50
2023-04-27T03:24:31.013Z,-0.50
2023-04-27T03:26:57.634Z,-0.50
2023-04-27T03:29:24.254Z,-0.56
2023-04-27T03:31:50.848Z,-0.63
2023-04-27T03:34:17.662Z,-0.56
2023-04-27T03:36:44.243Z,-0.50
2023-04-27T03:39:11.024Z,-0.50
2023-04-27T03:41:37.711Z,-0.50
2023-04-27T03:44:04.611Z,-0.56
2023-04-27T03:46:31.326Z,-0.63
2023-04-27T03:48:58.091Z,-0.56
2023-04-27T03:51:24.835Z,-0.56
2023-04-27T03:53:51.411Z,-0.56
2023-04-27T03:56:18.050Z,-0.63
2023-04-27T03:58:44.718Z,-0.63
2023-04-27T04:01:11.313Z,-0.63
2023-04-27T04:03:38.074Z,-0.56
2023-04-27T04:06:04.983Z,-0.63
2023-04-27T04:08:33.017Z,-0.69
2023-04-27T04:11:00.280Z,-0.69
2023-04-27T04:13:27.015Z,-0.69
2023-04-27T04:16:07.878Z,-0.63
2023-04-27T04:18:36.124Z,-0.69
2023-04-27T04:21:03.453Z,-0.69
2023-04-27T04:23:30.145Z,-0.63
2023-04-27T04:25:56.882Z,-0.69
2023-04-27T04:28:24.018Z,-0.69
2023-04-27T04:30:51.104Z,-0.69
2023-04-27T04:33:18.161Z,-0.75
2023-04-27T04:35:44.829Z,-0.75
2023-04-27T04:38:11.693Z,-0.75
2023-04-27T04:40:39.672Z,-0.69
2023-04-27T04:43:06.529Z,-0.63
2023-04-27T04:45:33.269Z,-0.63
2023-04-27T04:50:27.665Z,-0.56
2023-04-27T04:52:54.294Z,-0.50
2023-04-27T04:55:20.996Z,-0.50
2023-04-27T04:57:47.632Z,-0.50
2023-04-27T05:00:14.653Z,-0.44
2023-04-27T05:02:41.609Z,-0.44
2023-04-27T05:05:09.203Z,-0.31
2023-04-27T05:07:36.138Z,-0.31
2023-04-27T05:10:03.417Z,-0.31
2023-04-27T05:12:30.099Z,-0.19
2023-04-27T05:14:56.749Z,-0.31
2023-04-27T05:17:23.421Z,-0.19
2023-04-27T05:19:50.067Z,-0.13
2023-04-27T05:22:16.667Z,-0.19
2023-04-27T05:24:43.229Z,-0.06
2023-04-27T05:27:09.759Z,0.06
2023-04-27T05:29:36.365Z,0.13
2023-04-27T05:32:03.295Z,0.19
2023-04-27T05:34:29.986Z,0.25
2023-04-27T05:36:56.565Z,0.31
2023-04-27T05:39:23.157Z,0.50
2023-04-27T05:41:49.696Z,0.50
2023-04-27T05:44:16.729Z,0.56
2023-04-27T05:46:43.309Z,0.69
2023-04-27T05:49:09.952Z,0.88
2023-04-27T05:51:38.262Z,0.94
2023-04-27T05:54:04.920Z,1.06
2023-04-27T05:56:31.513Z,1.19
2023-04-27T05:58:59.061Z,1.38
2023-04-27T06:01:26.797Z,1.50
2023-04-27T06:03:53.511Z,1.63
2023-04-27T06:06:20.212Z,1.75
2023-04-27T06:08:46.842Z,1.88
2023-04-27T06:11:13.460Z,2.00
2023-04-27T06:13:40.039Z,2.13
2023-04-27T06:16:06.693Z,2.38
2023-04-27T06:18:33.372Z,2.63
2023-04-27T06:21:01.602Z,2.75
2023-04-27T06:23:28.607Z,2.94
2023-04-27T06:25:55.865Z,3.06
2023-04-27T06:28:22.547Z,3.06
2023-04-27T06:30:49.164Z,3.19
2023-04-27T06:33:15.842Z,3.25
2023-04-27T06:35:44.589Z,3.44
2023-04-27T06:38:12.440Z,3.69
2023-04-27T06:40:39.172Z,3.75
2023-04-27T06:43:05.781Z,3.81
2023-04-27T06:45:32.312Z,3.88
2023-04-27T06:47:58.926Z,3.94
2023-04-27T06:50:25.710Z,4.06
2023-04-27T06:52:52.396Z,4.25
2023-04-27T06:55:19.130Z,4.38
2023-04-27T06:57:45.673Z,4.56
2023-04-27T07:00:13.794Z,4.75
2023-04-27T07:02:40.715Z,5.00
2023-04-27T07:05:07.686Z,5.13
2023-04-27T07:07:34.412Z,5.25
2023-04-27T07:10:01.381Z,5.38
2023-04-27T07:12:27.978Z,5.56
2023-04-27T07:14:54.642Z,5.75
2023-04-27T07:17:21.493Z,6.00
2023-04-27T07:19:48.175Z,6.25
2023-04-27T07:22:16.030Z,6.31
2023-04-27T07:24:42.625Z,6.50
2023-04-27T07:27:10.233Z,6.63
2023-04-27T07:29:37.833Z,6.75
2023-04-27T07:32:08.689Z,6.94
2023-04-27T07:34:49.023Z,7.06
2023-04-27T07:37:19.928Z,7.31
2023-04-27T07:39:47.326Z,7.50
2023-04-27T07:42:13.936Z,7.56
2023-04-27T07:44:40.827Z,7.69
2023-04-27T07:47:07.707Z,7.88
2023-04-27T07:49:35.782Z,7.88
2023-04-27T07:52:02.733Z,8.00
2023-04-27T07:54:29.671Z,8.13
2023-04-27T07:56:56.329Z,8.19
2023-04-27T07:59:23.133Z,8.25
2023-04-27T08:01:49.847Z,8.31
2023-04-27T08:04:16.746Z,8.50
2023-04-27T08:06:43.720Z,8.63
2023-04-27T08:09:11.474Z,8.69
2023-04-27T08:11:38.569Z,8.50
2023-04-27T08:14:05.224Z,8.44
2023-04-27T08:16:32.112Z,8.50
2023-04-27T08:18:59.971Z,8.69
2023-04-27T08:21:28.597Z,8.69
2023-04-27T08:23:55.383Z,8.88
2023-04-27T08:26:24.375Z,8.88
2023-04-27T08:28:52.280Z,9.06
2023-04-27T08:31:18.916Z,9.06
2023-04-27T08:33:45.514Z,9.19
2023-04-27T08:36:12.162Z,9.25
2023-04-27T08:38:38.765Z,9.25
2023-04-27T08:41:20.341Z,9.19
2023-04-27T08:43:51.572Z,9.38
2023-04-27T08:46:21.416Z,9.50
2023-04-27T08:48:52.952Z,9.44
2023-04-27T08:51:21.802Z,9.56
2023-04-27T08:53:56.591Z,9.56
2023-04-27T08:56:25.454Z,9.69
2023-04-27T08:58:52.250Z,9.81
2023-04-27T09:01:19.393Z,9.88
2023-04-27T09:03:47.453Z,9.88
2023-04-27T09:06:15.145Z,9.88
2023-04-27T09:08:46.352Z,9.94
2023-04-27T09:11:36.773Z,10.13
2023-04-27T09:14:19.597Z,10.31
2023-04-27T09:16:53.879Z,10.44
2023-04-27T09:19:24.937Z,10.44
2023-04-27T09:21:51.957Z,10.56
2023-04-27T09:24:18.555Z,10.56
2023-04-27T09:26:50.263Z,10.50
2023-04-27T09:29:17.464Z,10.63
2023-04-27T09:31:44.105Z,10.63
2023-04-27T09:34:10.753Z,10.38
2023-04-27T09:36:38.109Z,10.63
2023-04-27T09:39:05.324Z,10.81
2023-04-27T09:41:35.971Z,10.81
2023-04-27T09:44:03.245Z,10.69
2023-04-27T09:46:33.676Z,10.94
2023-04-27T09:49:04.220Z,10.81
2023-04-27T09:51:31.835Z,10.69
2023-04-27T09:54:04.018Z,11.38
2023-04-27T09:56:42.354Z,11.38
2023-04-27T09:59:27.304Z,11.44
2023-04-27T10:02:02.855Z,11.38
2023-04-27T10:04:43.039Z,11.31
2023-04-27T10:07:15.299Z,11.50
2023-04-27T10:15:18.553Z,11.81
2023-04-27T10:17:58.652Z,11.81
2023-04-27T10:20:39.010Z,11.69
2023-04-27T10:23:06.331Z,11.75
2023-04-27T10:25:40.824Z,11.75
2023-04-27T10:28:08.296Z,11.75
2023-04-27T10:30:39.705Z,11.88
2023-04-27T10:33:11.886Z,12.06
2023-04-27T10:35:41.042Z,12.06
2023-04-27T10:38:10.745Z,11.94
2023-04-27T10:40:38.639Z,11.81
2023-04-27T10:43:14.273Z,11.75
2023-04-27T10:45:42.812Z,11.75
2023-04-27T10:48:13.056Z,12.00
2023-04-27T10:50:40.527Z,12.25
2023-04-27T10:53:08.498Z,12.56
2023-04-27T10:55:36.934Z,12.31
2023-04-27T10:58:04.463Z,12.50
2023-04-27T11:00:32.762Z,12.38
2023-04-27T11:03:19.890Z,12.56
2023-04-27T11:05:49.048Z,12.25
2023-04-27T11:08:21.009Z,12.44
2023-04-27T11:10:50.685Z,12.38
2023-04-27T11:13:22.874Z,12.75
2023-04-27T11:15:55.630Z,12.69
2023-04-27T11:18:24.708Z,12.25
2023-04-27T11:20:53.972Z,12.69
2023-04-27T11:23:25.020Z,12.50
2023-04-27T11:25:52.440Z,13.00
2023-04-27T11:28:20.968Z,12.81
2023-04-27T11:30:49.294Z,12.50
2023-04-27T11:33:16.005Z,12.38
2023-04-27T11:35:42.816Z,12.38
2023-04-27T11:38:17.213Z,12.56
2023-04-27T11:40:44.567Z,12.56
2023-04-27T11:43:15.404Z,12.56
2023-04-27T11:45:44.695Z,12.75
2023-04-27T11:48:15.880Z,12.88
2023-04-27T11:50:48.114Z,13.00
2023-04-27T11:53:15.894Z,13.00
2023-04-27T11:55:45.001Z,13.00
2023-04-27T11:58:16.189Z,13.19
2023-04-27T12:00:42.897Z,12.50
2023-04-27T12:03:09.831Z,12.56
2023-04-27T12:05:36.839Z,12.75
2023-04-27T12:08:03.618Z,13.25
2023-04-27T12:10:31.156Z,13.25
2023-04-27T12:12:57.714Z,13.44
2023-04-27T12:15:24.354Z,13.63
2023-04-27T12:17:51.034Z,13.75
2023-04-27T12:20:17.735Z,13.88
2023-04-27T12:22:44.352Z,13.25
2023-04-27T12:25:11.111Z,13.00
2023-04-27T12:27:37.684Z,13.13
2023-04-27T12:30:04.872Z,13.56
2023-04-27T12:32:31.859Z,13.63
2023-04-27T12:34:58.482Z,13.63
2023-04-27T12:37:26.802Z,13.63
2023-04-27T12:39:53.647Z,12.81
2023-04-27T12:42:23.989Z,13.19
2023-04-27T12:44:51.984Z,12.88
2023-04-27T12:47:45.909Z,13.44
2023-04-27T12:50:09.708Z,14.06
2023-04-27T12:52:36.588Z,13.94
2023-04-27T12:55:04.651Z,13.50
2023-04-27T12:57:31.528Z,13.50
2023-04-27T13:00:00.312Z,14.00
2023-04-27T13:02:28.270Z,13.25
2023-04-27T13:04:55.461Z,13.25
2023-04-27T13:07:22.185Z,13.56
2023-04-27T13:09:48.757Z,13.75
2023-04-27T13:12:15.498Z,13.38
2023-04-27T13:14:43.194Z,13.88
2023-04-27T13:17:09.827Z,14.38
2023-04-27T13:19:36.448Z,14.50
2023-04-27T13:22:03.917Z,14.56
2023-04-27T13:24:30.637Z,14.25
2023-04-27T13:26:57.225Z,13.75
2023-04-27T13:29:24.621Z,13.69
2023-04-27T13:31:51.412Z,13.50
2023-04-27T13:34:18.870Z,13.63
2023-04-27T13:36:45.701Z,13.69
2023-04-27T13:39:13.251Z,14.19
2023-04-27T13:41:39.859Z,14.31
2023-04-27T13:44:06.414Z,14.19
2023-04-27T13:46:33.244Z,13.81
2023-04-27T13:48:59.834Z,13.56
2023-04-27T13:51:27.962Z,13.44
2023-04-27T13:53:54.554Z,13.38
2023-04-27T13:56:21.638Z,13.50
2023-04-27T13:58:48.266Z,14.00
2023-04-27T14:01:14.917Z,13.94
2023-04-27T14:03:43.394Z,14.00
2023-04-27T14:06:10.425Z,13.81
2023-04-27T14:08:37.008Z,13.75
2023-04-27T14:11:03.852Z,13.75
2023-04-27T14:13:30.454Z,13.63
2023-04-27T14:15:57.118Z,13.88
2023-04-27T14:18:31.729Z,13.81
2023-04-27T14:20:59.188Z,14.00
2023-04-27T14:23:25.917Z,13.94
2023-04-27T14:25:52.467Z,13.63
2023-04-27T14:28:19.046Z,13.63
2023-04-27T14:30:45.718Z,13.75
2023-04-27T14:33:12.454Z,14.31
2023-04-27T14:35:39.212Z,13.94
2023-04-27T14:38:05.820Z,13.44
2023-04-27T14:40:32.914Z,13.63
2023-04-27T14:42:59.563Z,13.69
2023-04-27T14:45:31.168Z,13.88
2023-04-27T14:48:00.857Z,13.88
2023-04-27T14:50:28.205Z,13.88
2023-04-27T14:52:58.450Z,13.88
2023-04-27T14:55:25.064Z,13.81
2023-04-27T14:57:51.645Z,14.06
2023-04-27T15:00:18.548Z,13.69
2023-04-27T15:02:45.887Z,13.75
2023-04-27T15:05:12.613Z,14.06
2023-04-27T15:07:39.225Z,13.88
2023-04-27T15:10:06.923Z,14.00
2023-04-27T15:12:33.601Z,13.81
2023-04-27T15:15:00.188Z,13.88
2023-04-27T15:17:26.799Z,13.75
2023-04-27T15:19:54.414Z,13.75
2023-04-27T15:22:21.072Z,13.75
2023-04-27T15:24:47.740Z,13.63
2023-04-27T15:27:14.363Z,13.63
2023-04-27T15:29:41.850Z,13.69
2023-04-27T15:32:08.521Z,13.56
2023-04-27T15:34:35.094Z,13.81
2023-04-27T15:37:02.855Z,13.75
2023-04-27T15:39:29.701Z,13.50
2023-04-27T15:41:58.547Z,13.81
2023-04-27T15:44:25.516Z,13.81
2023-04-27T15:46:52.676Z,14.19
2023-04-27T15:49:19.252Z,13.75
2023-04-27T15:51:46.916Z,13.38
2023-04-27T15:54:13.502Z,13.63
2023-04-27T15:56:40.066Z,13.69
2023-04-27T15:59:08.008Z,13.69
2023-04-27T16:01:34.715Z,13.81
2023-04-27T16:04:01.490Z,13.69
2023-04-27T16:06:35.068Z,13.63
2023-04-27T16:09:03.414Z,13.63
2023-04-27T16:11:31.345Z,13.50
2023-04-27T16:13:58.594Z,13.31
2023-04-27T16:16:25.337Z,13.38
2023-04-27T16:18:51.979Z,13.38
2023-04-27T16:21:18.591Z,13.31
2023-04-27T16:23:45.208Z,13.38
2023-04-27T16:26:11.756Z,13.50
2023-04-27T16:28:38.421Z,13.44
2023-04-27T16:31:05.525Z,13.13
2023-04-27T16:33:32.146Z,13.00
2023-04-27T16:35:58.767Z,12.88
2023-04-27T16:38:25.362Z,12.88
2023-04-27T16:40:52.684Z,12.81
2023-04-27T16:43:19.315Z,12.81
2023-04-27T16:45:46.048Z,12.88
2023-04-27T16:48:12.906Z,12.81
2023-04-27T16:50:40.085Z,13.00
2023-04-27T16:53:09.940Z,12.94
2023-04-27T16:55:36.607Z,12.88
2023-04-27T16:58:03.174Z,12.88
2023-04-27T17:00:29.985Z,12.88
2023-04-27T17:02:56.683Z,12.94
2023-04-27T17:05:23.330Z,12.88
2023-04-27T17:07:50.735Z,12.88
2023-04-27T17:10:18.662Z,12.88
2023-04-27T17:12:45.362Z,12.88
2023-04-27T17:15:12.418Z,12.75
2023-04-27T17:17:39.057Z,12.75
2023-04-27T17:20:07.325Z,12.75
2023-04-27T17:22:33.953Z,12.63
2023-04-27T17:25:00.616Z,12.56
2023-04-27T17:27:27.205Z,12.56
2023-04-27T17:29:54.597Z,12.50
2023-04-27T17:32:21.323Z,12.38
2023-04-27T17:34:48.022Z,12.31
2023-04-27T17:37:17.203Z,12.25
2023-04-27T17:39:43.846Z,12.19
2023-04-27T17:42:12.347Z,12.13
2023-04-27T17:44:41.529Z,12.13
2023-04-27T17:47:09.102Z,12.00
2023-04-27T17:49:35.905Z,12.00
2023-04-27T17:52:02.678Z,11.88
2023-04-27T17:54:30.240Z,11.88
2023-04-27T17:56:57.619Z,11.88
2023-04-27T17:59:24.922Z,11.81
2023-04-27T18:01:52.422Z,11.75
2023-04-27T18:04:19.393Z,11.69
2023-04-27T18:06:46.273Z,11.69
2023-04-27T18:09:13.103Z,11.63
2023-04-27T18:11:39.879Z,11.56
2023-04-27T18:14:06.521Z,11.50
2023-04-27T18:16:33.226Z,11.44
2023-04-27T18:18:59.843Z,11.44
2023-04-27T18:21:28.319Z,11.38
2023-04-27T18:23:56.328Z,11.38
2023-04-27T18:26:23.239Z,11.38
2023-04-27T18:28:49.832Z,11.25
2023-04-27T18:31:17.723Z,11.25
2023-04-27T18:33:45.426Z,11.25
2023-04-27T18:36:12.452Z,11.25
2023-04-27T18:38:39.030Z,11.13
2023-04-27T18:41:05.765Z,11.19
2023-04-27T18:43:35.254Z,11.00
2023-04-27T18:46:01.992Z,11.06
2023-04-27T18:48:28.641Z,10.94
2023-04-27T18:50:55.390Z,10.94
2023-04-27T18:53:22.343Z,10.94
2023-04-27T18:55:49.065Z,10.94
2023-04-27T18:58:15.994Z,10.88
2023-04-27T19:00:42.642Z,10.81
2023-04-27T19:03:09.724Z,10.88
2023-04-27T19:05:39.000Z,10.88
2023-04-27T19:08:05.907Z,10.81
2023-04-27T19:10:32.468Z,10.75
2023-04-27T19:12:59.159Z,10.69
2023-04-27T19:15:25.880Z,10.69
2023-04-27T19:18:02.699Z,10.75
2023-04-27T19:20:36.409Z,10.63
2023-04-27T19:23:03.177Z,10.63
2023-04-27T19:25:29.882Z,10.63
2023-04-27T19:27:56.506Z,10.50
2023-04-27T19:30:23.182Z,10.50
2023-04-27T19:32:49.820Z,10.38
2023-04-27T19:35:17.146Z,10.38
2023-04-27T19:37:43.756Z,10.56
2023-04-27T19:40:11.328Z,10.50
2023-04-27T19:42:38.020Z,10.50
2023-04-27T19:45:05.127Z,10.50
2023-04-27T19:47:31.762Z,10.44
2023-04-27T19:49:59.100Z,10.38
2023-04-27T19:52:26.017Z,10.38
2023-04-27T19:54:53.464Z,10.25
2023-04-27T19:57:21.270Z,10.25
2023-04-27T19:59:48.094Z,10.31
2023-04-27T20:02:15.320Z,10.31
2023-04-27T20:04:42.212Z,10.31
2023-04-27T20:07:09.008Z,10.38
2023-04-27T20:09:35.610Z,10.31
2023-04-27T20:12:03.618Z,10.25
2023-04-27T20:14:33.559Z,10.19
2023-04-27T20:17:00.570Z,10.25
2023-04-27T20:19:27.175Z,10.19
2023-04-27T20:21:53.881Z,10.19
2023-04-27T20:24:20.509Z,10.13
2023-04-27T20:26:47.302Z,10.13
2023-04-27T20:29:14.327Z,10.13
2023-04-27T20:31:41.504Z,10.06
2023-04-27T20:34:08.243Z,10.13
2023-04-27T20:36:34.834Z,10.13
2023-04-27T20:39:01.404Z,10.13
2023-04-27T20:41:29.129Z,10.13
2023-04-27T20:43:55.878Z,10.13
2023-04-27T20:46:22.450Z,10.06
2023-04-27T20:48:49.059Z,10.06
2023-04-27T20:51:15.863Z,10.00
2023-04-27T20:53:42.804Z,10.00
2023-04-27T20:56:09.620Z,10.00
2023-04-27T20:58:36.172Z,9.88
2023-04-27T21:01:02.802Z,9.81
2023-04-27T21:03:29.510Z,9.75
2023-04-27T21:05:56.341Z,9.75
2023-04-27T21:08:22.990Z,9.81
2023-04-27T21:10:49.652Z,9.75
2023-04-27T21:13:16.261Z,9.63
2023-04-27T21:15:42.862Z,9.63
2023-04-27T21:18:16.022Z,9.56
2023-04-27T21:20:49.800Z,9.56
2023-04-27T21:23:16.979Z,9.50
2023-04-27T21:25:45.558Z,9.44
2023-04-27T21:28:12.575Z,9.44
2023-04-27T21:30:39.828Z,9.56
2023-04-27T21:33:06.962Z,9.44
2023-04-27T21:35:33.918Z,9.44
2023-04-27T21:38:01.194Z,9.44
2023-04-27T21:40:27.777Z,9.44
2023-04-27T21:42:54.998Z,9.50
2023-04-27T21:45:22.044Z,9.44
2023-04-27T21:47:48.773Z,9.56
2023-04-27T21:50:16.491Z,9.50
2023-04-27T21:52:43.146Z,9.44
2023-04-27T21:55:10.050Z,9.38
2023-04-27T21:57:36.865Z,9.50
2023-04-27T22:00:13.115Z,9.50
2023-04-27T22:02:42.486Z,9.50
2023-04-27T22:05:09.691Z,9.50
2023-04-27T22:07:37.296Z,9.50
2023-04-27T22:10:05.806Z,9.44
2023-04-27T22:12:33.409Z,9.44
2023-04-27T22:15:00.200Z,9.50
2023-04-27T22:17:27.744Z,9.44
2023-04-27T22:19:54.862Z,9.50
2023-04-27T22:22:21.535Z,9.44
2023-04-27T22:24:48.100Z,9.44
2023-04-27T22:27:14.653Z,9.44
2023-04-27T22:29:41.245Z,9.50
2023-04-27T22:32:07.989Z,9.44
2023-04-27T22:34:34.823Z,9.44
2023-04-27T22:37:02.330Z,9.38
2023-04-27T22:39:30.183Z,9.38
2023-04-27T22:41:56.781Z,9.38
2023-04-27T22:44:23.364Z,9.44
2023-04-27T22:46:50.072Z,9.38
2023-04-27T22:49:17.268Z,9.38
2023-04-27T22:51:43.966Z,9.31
2023-04-27T22:54:10.510Z,9.31
2023-04-27T22:56:37.150Z,9.31
2023-04-27T22:59:03.840Z,9.25
2023-04-27T23:01:30.552Z,9.31
2023-04-27T23:03:57.266Z,9.31
2023-04-27T23:06:23.910Z,9.31
2023-04-27T23:08:50.483Z,9.31
2023-04-27T23:11:18.835Z,9.25
2023-04-27T23:13:48.155Z,9.25
2023-04-27T23:16:14.928Z,9.25
2023-04-27T23:18:41.850Z,9.31
2023-04-27T23:21:10.168Z,9.25
2023-04-27T23:23:36.771Z,9.13
2023-04-27T23:26:03.801Z,9.13
2023-04-27T23:28:30.372Z,9.00
2023-04-27T23:30:57.236Z,9.00
2023-04-27T23:33:24.324Z,9.06
2023-04-27T23:35:51.075Z,9.06
2023-04-27T23:38:17.668Z,9.06
2023-04-27T23:40:44.267Z,9.00
2023-04-27T23:43:11.751Z,9.00
2023-04-27T23:45:38.707Z,8.94
2023-04-27T23:48:05.602Z,9.00
2023-04-27T23:50:32.742Z,9.00
2023-04-27T23:52:59.339Z,8.94
2023-04-27T23:55:25.939Z,9.00
2023-04-27T23:57:52.574Z,9.00
